Aeroporto :







RITROVATECI SU...

 
LOGIN :

Iscrizione | Disclaimer

   EN    FR    IT 

 









Sommario :    VFR   VFR Marginale   IFR   IFR Intensivo   IFR Molto Intensivo
Visibilità : 
Base nubi : 
>= 8 km
>= 3000ft
5 / 8 km
1000 / 3000 ft
1500m / 5 km
500 / 1000 ft
800 / 1500m
200 / 500 ft
< 800m
< 200 ft
Simboli :   Temporali  Nebbia  Neve Forte  Precipitazioni Forti  Vento > 20 kt






- Altitudine del aeroporto : 1709 ft
- Codice IATA : YKL


CYKL - Schefferville

ULTIMO METAR :
  • 272200Z AUTO 33007KT 9SM CLR M22/M26 A2983 RMK SLP172

METARs OBSOLETI :
  • 272100Z AUTO 34007KT 9SM CLR M21/M25 A2983 RMK SLP170
  • 272000Z AUTO 35008KT 9SM CLR M20/M24 A2983 RMK SLP170

TAF TAF CYKL
Valido dal 27 a 20 ore il 28 a 08 ore UTC


271938Z 2720/2808 34007KT P6SM IC FEW020
BECMG 2800/2802 VRB03KT RMK FCST BASED ON AUTO OBS. NXT FCST BY 280200Z



MetMap, La meteo Aeronautica in un colpo d'occhio ! - Copyright ORBIFLY Dicembre 2007 - Disclaimer

ORBIFLY MET'MAP TEAM :

Programmazione e sviluppo : Alexandra Zaïnal
Concezione : Baudouin d'Aumeries
Aiuto per la programmazione : Marc-Olivier Méhu
Supporto tecnico e logistico : Manuel Goepfert
Aiuto per la traduzione : Arnaldo La Scala

Contatto : metmap@orbifly.com




FONTI E CREDITI :

   NOAA